Tordesillas, Spain
Current Conditions -  °F | °C
As of 11:00 AM on Tuesday 27 Jan 2015 (Local Time) from LEVD Reporting Station
Moderate Fog Moderate Fog  
Wind Chill:   Ceiling: 200
Heat Index:   Visibility: 0.18mi
Dew Point:   Wind: 2mph
Humidity: 93%   Direction: NA
Pressure: 30.45"   Gusts: NA
Location:  41.5°N, 5°W
Report Text: LEVD 271000Z VRB02KT 0300 R23/P2000 FG VV002 01/00 Q1031
Loading
Personal Weather Stations






























Interactive Weather Map New forecast layout! Learn more

10-Day Weather Forecast

Advertisements
Track Severe Weather on mobile